createdAt,value
2023-04-19T00:01:11.404Z,10.50
2023-04-19T00:03:38.453Z,11.10
2023-04-19T00:06:08.362Z,10.30
2023-04-19T00:08:34.997Z,10.75
2023-04-19T00:11:01.700Z,10.75
2023-04-19T00:13:28.667Z,10.82
2023-04-19T00:15:58.551Z,11.32
2023-04-19T00:18:25.329Z,10.40
2023-04-19T00:20:52.217Z,10.95
2023-04-19T00:23:18.946Z,11.57
2023-04-19T00:25:52.069Z,11.10
2023-04-19T00:28:21.023Z,10.23
2023-04-19T00:30:50.106Z,10.38
2023-04-19T00:33:16.730Z,11.27
2023-04-19T00:35:43.495Z,10.43
2023-04-19T00:38:12.902Z,10.55
2023-04-19T00:40:39.719Z,11.13
2023-04-19T00:43:06.619Z,10.82
2023-04-19T00:45:37.062Z,9.85
2023-04-19T00:48:06.801Z,11.35
2023-04-19T00:50:33.720Z,10.63
2023-04-19T00:53:02.911Z,10.27
2023-04-19T00:55:29.829Z,10.25
2023-04-19T00:57:57.471Z,11.00
2023-04-19T01:00:24.156Z,10.55
2023-04-19T01:02:53.761Z,11.35
2023-04-19T01:05:20.715Z,10.75
2023-04-19T01:07:49.709Z,11.15
2023-04-19T01:10:16.764Z,10.55
2023-04-19T01:12:43.408Z,10.38
2023-04-19T01:15:10.865Z,10.93
2023-04-19T01:17:39.950Z,10.75
2023-04-19T01:20:08.286Z,10.60
2023-04-19T01:22:37.812Z,11.23
2023-04-19T01:25:05.336Z,11.23
2023-04-19T01:27:32.054Z,10.95
2023-04-19T01:29:59.035Z,8.02
2023-04-19T01:32:28.443Z,10.73
2023-04-19T01:34:55.267Z,9.98
2023-04-19T01:37:24.385Z,10.45
2023-04-19T01:39:51.168Z,9.80
2023-04-19T01:42:17.955Z,10.98
2023-04-19T01:44:47.017Z,11.18
2023-04-19T01:47:13.857Z,10.98
2023-04-19T01:49:40.941Z,11.48
2023-04-19T01:52:10.255Z,11.55
2023-04-19T01:54:37.030Z,12.27
2023-04-19T01:57:06.078Z,11.35
2023-04-19T01:59:32.871Z,10.73
2023-04-19T02:01:59.886Z,11.10
2023-04-19T02:04:26.763Z,11.55
2023-04-19T02:06:53.441Z,12.02
2023-04-19T02:09:20.186Z,11.25
2023-04-19T02:11:46.853Z,10.40
2023-04-19T02:14:13.834Z,11.05
2023-04-19T02:16:40.873Z,10.80
2023-04-19T02:19:07.684Z,11.43
2023-04-19T02:21:34.475Z,10.93
2023-04-19T02:24:03.938Z,10.70
2023-04-19T02:26:30.729Z,10.77
2023-04-19T02:28:57.525Z,10.68
2023-04-19T02:31:24.301Z,11.02
2023-04-19T02:33:51.265Z,11.45
2023-04-19T02:36:17.936Z,10.70
2023-04-19T02:38:44.679Z,10.02
2023-04-19T02:41:11.552Z,10.13
2023-04-19T02:43:38.199Z,10.88
2023-04-19T02:46:04.911Z,10.63
2023-04-19T02:48:31.759Z,10.18
2023-04-19T02:50:58.755Z,9.88
2023-04-19T02:53:25.745Z,10.88
2023-04-19T02:55:52.513Z,10.63
2023-04-19T02:58:19.215Z,10.93
2023-04-19T03:00:48.309Z,9.70
2023-04-19T03:03:17.538Z,10.25
2023-04-19T03:05:44.296Z,10.27
2023-04-19T03:08:13.389Z,11.00
2023-04-19T03:10:40.249Z,10.35
2023-04-19T03:13:06.870Z,9.57
2023-04-19T03:15:34.004Z,10.20
2023-04-19T03:18:00.876Z,9.73
2023-04-19T03:20:27.603Z,9.40
2023-04-19T03:22:54.547Z,11.30
2023-04-19T03:25:21.515Z,10.02
2023-04-19T03:27:48.326Z,10.00
2023-04-19T03:30:15.402Z,9.88
2023-04-19T03:32:44.407Z,10.38
2023-04-19T03:35:11.259Z,9.52
2023-04-19T03:37:38.085Z,8.40
2023-04-19T03:40:07.347Z,10.23
2023-04-19T03:42:34.190Z,8.75
2023-04-19T03:45:01.006Z,9.23
2023-04-19T03:47:27.961Z,8.95
2023-04-19T03:49:54.680Z,9.05
2023-04-19T03:52:21.481Z,8.80
2023-04-19T03:54:50.374Z,7.63
2023-04-19T03:57:17.803Z,9.68
2023-04-19T03:59:44.626Z,8.93
2023-04-19T04:02:11.567Z,9.88
2023-04-19T04:04:41.050Z,7.32
2023-04-19T04:07:10.751Z,7.20
2023-04-19T04:09:37.467Z,9.35
2023-04-19T04:12:06.636Z,9.27
2023-04-19T04:14:33.320Z,8.65
2023-04-19T04:17:00.001Z,7.20
2023-04-19T04:19:27.096Z,4.65
2023-04-19T04:21:54.072Z,7.70
2023-04-19T04:24:22.358Z,6.18
2023-04-19T04:26:50.067Z,7.70
2023-04-19T04:29:19.948Z,6.22
2023-04-19T04:31:46.699Z,6.90
2023-04-19T04:34:14.395Z,7.15
2023-04-19T04:36:41.706Z,6.70
2023-04-19T04:39:12.487Z,7.35
2023-04-19T04:41:42.260Z,7.05
2023-04-19T04:44:12.963Z,7.10
2023-04-19T04:46:40.255Z,7.60
2023-04-19T04:49:07.499Z,7.57
2023-04-19T04:51:35.574Z,6.90
2023-04-19T04:54:05.486Z,7.18
2023-04-19T04:56:32.696Z,7.50
2023-04-19T04:58:59.644Z,7.70
2023-04-19T05:01:26.303Z,7.57
2023-04-19T05:03:53.236Z,7.55
2023-04-19T05:06:22.439Z,8.18
2023-04-19T05:08:51.525Z,7.90
2023-04-19T05:11:20.955Z,7.82
2023-04-19T05:13:48.090Z,7.55
2023-04-19T05:16:15.332Z,7.70
2023-04-19T05:18:42.334Z,7.63
2023-04-19T05:21:12.034Z,7.18
2023-04-19T05:23:39.131Z,6.72
2023-04-19T05:26:06.407Z,7.65
2023-04-19T05:28:35.651Z,7.18
2023-04-19T05:31:02.429Z,7.10
2023-04-19T05:33:29.269Z,6.57
2023-04-19T05:35:56.301Z,6.75
2023-04-19T05:38:23.292Z,6.50
2023-04-19T05:40:52.853Z,6.28
2023-04-19T05:43:19.767Z,6.72
2023-04-19T05:45:46.721Z,6.68
2023-04-19T05:48:16.091Z,5.95
2023-04-19T05:50:45.116Z,6.28
2023-04-19T05:53:13.313Z,6.38
2023-04-19T05:55:40.360Z,5.70
2023-04-19T05:58:07.671Z,5.70
2023-04-19T06:00:38.225Z,6.18
2023-04-19T06:03:08.056Z,5.55
2023-04-19T06:05:35.207Z,5.57
2023-04-19T06:08:05.187Z,5.20
2023-04-19T06:10:47.914Z,4.47
2023-04-19T06:13:21.072Z,5.18
2023-04-19T06:15:48.112Z,4.90
2023-04-19T06:18:19.223Z,4.68
2023-04-19T06:20:46.830Z,5.10
2023-04-19T06:23:18.733Z,5.25
2023-04-19T06:25:49.104Z,5.20
2023-04-19T06:28:16.285Z,5.13
2023-04-19T06:30:43.349Z,4.65
2023-04-19T06:33:10.102Z,4.85
2023-04-19T06:35:36.925Z,3.90
2023-04-19T06:38:06.536Z,4.78
2023-04-19T06:40:38.998Z,4.13
2023-04-19T06:43:06.078Z,4.88
2023-04-19T06:45:33.526Z,4.53
2023-04-19T06:48:02.623Z,4.75
2023-04-19T06:50:32.535Z,4.57
2023-04-19T06:53:04.084Z,5.38
2023-04-19T06:55:31.874Z,4.80
2023-04-19T06:57:59.019Z,5.03
2023-04-19T07:00:26.624Z,4.63
2023-04-19T07:02:53.671Z,4.93
2023-04-19T07:05:20.677Z,4.95
2023-04-19T07:07:50.106Z,5.03
2023-04-19T07:10:17.688Z,4.57
2023-04-19T07:12:45.828Z,4.40
2023-04-19T07:15:15.287Z,5.75
2023-04-19T07:17:47.595Z,4.97
2023-04-19T07:20:14.464Z,4.80
2023-04-19T07:22:41.863Z,4.80
2023-04-19T07:25:09.358Z,5.25
2023-04-19T07:27:36.239Z,5.65
2023-04-19T07:30:03.106Z,5.30
2023-04-19T07:32:31.875Z,5.43
2023-04-19T07:34:58.930Z,4.95
2023-04-19T07:37:25.873Z,4.20
2023-04-19T07:39:52.709Z,4.43
2023-04-19T07:42:19.761Z,4.85
2023-04-19T07:44:46.480Z,4.45
2023-04-19T07:47:13.388Z,4.85
2023-04-19T07:49:44.502Z,4.07
2023-04-19T07:52:12.227Z,4.47
2023-04-19T07:54:44.404Z,4.13
2023-04-19T07:57:11.080Z,5.15
2023-04-19T07:59:37.822Z,4.75
2023-04-19T08:02:04.650Z,4.63
2023-04-19T08:04:31.794Z,4.78
2023-04-19T08:06:59.487Z,5.07
2023-04-19T08:09:26.346Z,4.88
2023-04-19T08:11:57.830Z,4.72
2023-04-19T08:14:37.629Z,4.18
2023-04-19T08:17:24.614Z,6.28
2023-04-19T08:19:53.214Z,4.45
2023-04-19T08:22:21.783Z,4.53
2023-04-19T08:24:52.466Z,4.18
2023-04-19T08:27:19.682Z,4.20
2023-04-19T08:29:46.991Z,3.45
2023-04-19T08:32:13.941Z,4.07
2023-04-19T08:34:40.928Z,4.03
2023-04-19T08:37:10.051Z,3.45
2023-04-19T08:39:36.939Z,3.08
2023-04-19T08:42:10.928Z,3.72
2023-04-19T08:44:49.221Z,3.45
2023-04-19T08:47:31.167Z,2.85
2023-04-19T08:50:24.063Z,3.08
2023-04-19T08:53:00.663Z,2.63
2023-04-19T08:55:35.795Z,2.33
2023-04-19T08:58:12.336Z,3.00
2023-04-19T09:00:45.820Z,3.15
2023-04-19T09:03:12.663Z,3.35
2023-04-19T09:05:39.865Z,3.20
2023-04-19T09:08:28.948Z,3.10
2023-04-19T09:10:58.178Z,2.42
2023-04-19T09:13:27.997Z,2.78
2023-04-19T09:15:58.053Z,2.53
2023-04-19T09:18:30.564Z,2.92
2023-04-19T09:20:58.324Z,2.13
2023-04-19T09:23:28.577Z,3.13
2023-04-19T09:28:34.187Z,1.60
2023-04-19T09:31:33.361Z,2.60
2023-04-19T09:34:14.656Z,2.40
2023-04-19T09:36:41.626Z,2.90
2023-04-19T09:39:08.543Z,2.83
2023-04-19T09:41:38.995Z,2.60
2023-04-19T09:46:46.500Z,3.30
2023-04-19T09:49:33.634Z,2.80
2023-04-19T09:52:10.263Z,2.40
2023-04-19T09:54:37.906Z,2.47
2023-04-19T09:57:07.438Z,2.47
2023-04-19T09:59:36.388Z,3.22
2023-04-19T10:02:05.157Z,2.55
2023-04-19T10:04:57.124Z,2.20
2023-04-19T10:07:30.099Z,2.85
2023-04-19T10:10:11.908Z,2.15
2023-04-19T10:13:15.444Z,2.20
2023-04-19T10:15:50.122Z,1.85
2023-04-19T10:18:18.332Z,1.73
2023-04-19T10:20:54.509Z,1.92
2023-04-19T10:23:23.790Z,1.25
2023-04-19T10:25:56.802Z,1.15
2023-04-19T10:28:23.682Z,1.25
2023-04-19T10:31:02.657Z,1.38
2023-04-19T10:33:32.326Z,1.00
2023-04-19T10:35:59.816Z,1.00
2023-04-19T10:38:40.235Z,1.48
2023-04-19T10:41:13.656Z,1.00
2023-04-19T10:44:11.767Z,1.27
2023-04-19T10:46:41.616Z,1.40
2023-04-19T10:49:13.706Z,1.73
2023-04-19T10:51:44.454Z,1.40
2023-04-19T10:54:31.606Z,1.60
2023-04-19T10:57:02.749Z,1.50
2023-04-19T10:59:32.777Z,1.83
2023-04-19T11:02:02.141Z,1.75
2023-04-19T11:04:32.283Z,1.90
2023-04-19T11:07:05.031Z,1.70
2023-04-19T11:09:36.025Z,2.00
2023-04-19T11:12:08.221Z,1.97
2023-04-19T11:14:36.988Z,2.00
2023-04-19T11:17:16.605Z,1.70
2023-04-19T11:19:45.219Z,1.55
2023-04-19T11:22:11.925Z,1.80
2023-04-19T11:24:38.532Z,1.83
2023-04-19T11:27:09.524Z,1.67
2023-04-19T11:29:36.175Z,1.67
2023-04-19T11:32:05.075Z,1.80
2023-04-19T11:34:37.183Z,1.48
2023-04-19T11:37:03.876Z,1.55
2023-04-19T11:39:32.965Z,1.90
2023-04-19T11:41:59.627Z,2.95
2023-04-19T11:44:26.337Z,2.55
2023-04-19T11:47:00.352Z,2.20
2023-04-19T11:49:31.225Z,8.80
2023-04-19T11:52:04.645Z,6.10
2023-04-19T11:54:32.070Z,2.58
2023-04-19T11:57:03.436Z,9.85
2023-04-19T11:59:32.458Z,4.25
2023-04-19T12:02:12.799Z,2.50
2023-04-19T12:04:42.252Z,2.40
2023-04-19T12:07:10.563Z,1.80
2023-04-19T12:09:38.665Z,2.10
2023-04-19T12:12:05.394Z,2.30
2023-04-19T12:14:32.374Z,2.40
2023-04-19T12:17:05.866Z,2.10
2023-04-19T12:19:37.445Z,2.38
2023-04-19T12:22:17.489Z,2.20
2023-04-19T12:24:44.126Z,2.22
2023-04-19T12:27:11.502Z,1.65
2023-04-19T12:29:39.227Z,2.00
2023-04-19T12:32:10.884Z,2.97
2023-04-19T12:34:37.557Z,10.15
2023-04-19T12:37:06.933Z,3.03
2023-04-19T12:39:33.709Z,2.35
2023-04-19T12:42:01.409Z,2.50
2023-04-19T12:44:30.650Z,2.20
2023-04-19T12:46:57.811Z,3.08
2023-04-19T12:49:24.707Z,2.08
2023-04-19T12:51:51.409Z,3.38
2023-04-19T12:54:18.078Z,3.78
2023-04-19T12:56:44.631Z,2.50
2023-04-19T12:59:13.633Z,6.65
2023-04-19T13:01:40.778Z,2.35
2023-04-19T13:04:11.630Z,1.98
2023-04-19T13:06:41.082Z,1.92
2023-04-19T13:09:14.159Z,2.00
2023-04-19T13:11:41.850Z,2.63
2023-04-19T13:14:11.432Z,2.55
2023-04-19T13:16:40.322Z,2.90
2023-04-19T13:19:11.726Z,3.05
2023-04-19T13:21:41.559Z,2.15
2023-04-19T13:24:08.430Z,2.00
2023-04-19T13:26:35.034Z,2.10
2023-04-19T13:29:01.708Z,2.13
2023-04-19T13:31:31.151Z,2.00
2023-04-19T13:34:00.744Z,2.35
2023-04-19T13:36:28.214Z,2.00
2023-04-19T13:38:57.390Z,2.40
2023-04-19T13:41:24.039Z,2.40
2023-04-19T13:43:50.573Z,1.95
2023-04-19T13:46:19.480Z,2.47
2023-04-19T13:48:49.541Z,2.40
2023-04-19T13:51:16.159Z,2.65
2023-04-19T13:53:42.736Z,2.40
2023-04-19T13:56:09.682Z,2.25
2023-04-19T13:58:37.440Z,2.53
2023-04-19T14:01:04.147Z,2.70
2023-04-19T14:03:31.714Z,2.60
2023-04-19T14:06:03.258Z,2.88
2023-04-19T14:08:29.788Z,2.38
2023-04-19T14:10:58.653Z,2.55
2023-04-19T14:13:25.246Z,2.80
2023-04-19T14:15:51.877Z,3.30
2023-04-19T14:18:18.437Z,2.35
2023-04-19T14:20:45.681Z,2.88
2023-04-19T14:23:14.654Z,3.20
2023-04-19T14:25:41.265Z,3.00
2023-04-19T14:28:07.893Z,3.20
2023-04-19T14:30:34.700Z,2.58
2023-04-19T14:33:03.966Z,2.65
2023-04-19T14:35:31.127Z,2.67
2023-04-19T14:37:57.758Z,2.88
2023-04-19T14:40:24.567Z,2.58
2023-04-19T14:42:53.624Z,2.70
2023-04-19T14:45:26.028Z,2.90
2023-04-19T14:47:52.712Z,2.65
2023-04-19T14:50:20.022Z,2.65
2023-04-19T14:52:48.816Z,1.92
2023-04-19T14:55:15.422Z,2.28
2023-04-19T14:57:42.033Z,1.75
2023-04-19T15:00:09.603Z,2.55
2023-04-19T15:02:37.474Z,2.50
2023-04-19T15:05:04.670Z,2.90
2023-04-19T15:07:31.555Z,2.72
2023-04-19T15:09:58.531Z,2.80
2023-04-19T15:12:27.530Z,2.00
2023-04-19T15:14:56.408Z,2.85
2023-04-19T15:17:23.083Z,2.55
2023-04-19T15:19:52.014Z,2.78
2023-04-19T15:22:18.822Z,2.78
2023-04-19T15:24:47.797Z,2.60
2023-04-19T15:27:16.861Z,2.60
2023-04-19T15:29:43.488Z,2.28
2023-04-19T15:32:12.204Z,3.35
2023-04-19T15:34:38.817Z,2.70
2023-04-19T15:37:08.786Z,1.80
2023-04-19T15:39:35.505Z,2.17
2023-04-19T15:42:03.169Z,2.65
2023-04-19T15:44:32.299Z,3.00
2023-04-19T15:46:58.995Z,2.60
2023-04-19T15:49:27.935Z,2.55
2023-04-19T15:51:57.163Z,2.50
2023-04-19T15:54:23.841Z,2.75
2023-04-19T15:56:52.698Z,2.67
2023-04-19T15:59:19.239Z,2.90
2023-04-19T16:01:46.893Z,2.50
2023-04-19T16:04:13.810Z,2.70
2023-04-19T16:06:40.828Z,2.40
2023-04-19T16:09:09.962Z,2.20
2023-04-19T16:11:36.647Z,2.40
2023-04-19T16:14:03.244Z,2.53
2023-04-19T16:16:34.374Z,2.65
2023-04-19T16:19:03.689Z,2.50
2023-04-19T16:21:32.642Z,2.70
2023-04-19T16:24:01.486Z,2.78
2023-04-19T16:26:28.150Z,3.10
2023-04-19T16:28:57.129Z,2.78
2023-04-19T16:31:28.552Z,2.97
2023-04-19T16:33:55.347Z,2.88
2023-04-19T16:36:22.161Z,2.95
2023-04-19T16:38:51.358Z,1.70
2023-04-19T16:41:18.030Z,2.65
2023-04-19T16:43:44.841Z,2.95
2023-04-19T16:46:11.454Z,1.92
2023-04-19T16:48:40.724Z,2.38
2023-04-19T16:51:07.310Z,2.33
2023-04-19T16:53:36.136Z,2.78
2023-04-19T16:56:03.693Z,2.38
2023-04-19T16:58:32.421Z,1.80
2023-04-19T17:01:02.683Z,2.28
2023-04-19T17:03:32.332Z,2.45
2023-04-19T17:05:59.146Z,2.58
2023-04-19T17:08:26.626Z,2.67
2023-04-19T17:10:53.246Z,2.50
2023-04-19T17:13:22.906Z,2.80
2023-04-19T17:15:51.843Z,2.70
2023-04-19T17:18:18.635Z,2.65
2023-04-19T17:20:45.753Z,2.50
2023-04-19T17:23:12.426Z,2.75
2023-04-19T17:25:41.556Z,2.55
2023-04-19T17:28:10.429Z,2.55
2023-04-19T17:30:37.103Z,2.40
2023-04-19T17:33:06.349Z,2.40
2023-04-19T17:35:33.045Z,2.35
2023-04-19T17:38:01.833Z,1.77
2023-04-19T17:40:29.551Z,2.22
2023-04-19T17:42:56.513Z,2.17
2023-04-19T17:45:25.007Z,2.20
2023-04-19T17:47:55.747Z,1.75
2023-04-19T17:50:22.819Z,2.05
2023-04-19T17:52:49.471Z,2.25
2023-04-19T17:55:16.194Z,2.28
2023-04-19T17:57:46.079Z,1.90
2023-04-19T18:00:13.596Z,2.35
2023-04-19T18:02:40.854Z,1.75
2023-04-19T18:05:08.012Z,2.00
2023-04-19T18:07:37.485Z,2.28
2023-04-19T18:10:04.445Z,1.70
2023-04-19T18:12:31.102Z,2.10
2023-04-19T18:14:59.901Z,2.28
2023-04-19T18:17:26.637Z,1.80
2023-04-19T18:19:53.476Z,2.00
2023-04-19T18:22:20.030Z,2.00
2023-04-19T18:24:47.390Z,1.65
2023-04-19T18:27:17.354Z,2.28
2023-04-19T18:29:44.061Z,1.77
2023-04-19T18:32:10.831Z,1.92
2023-04-19T18:34:42.562Z,1.95
2023-04-19T18:37:15.404Z,2.00
2023-04-19T18:39:42.572Z,1.80
2023-04-19T18:42:11.676Z,1.60
2023-04-19T18:44:53.566Z,1.40
2023-04-19T18:47:21.315Z,1.95
2023-04-19T18:50:03.735Z,1.65
2023-04-19T18:52:31.717Z,1.67
2023-04-19T18:54:58.494Z,2.00
2023-04-19T18:57:27.621Z,2.22
2023-04-19T18:59:56.898Z,2.58
2023-04-19T19:02:23.663Z,2.30
2023-04-19T19:04:58.510Z,2.13
2023-04-19T19:07:36.161Z,1.90
2023-04-19T19:10:16.910Z,1.85
2023-04-19T19:12:47.521Z,2.05
2023-04-19T19:15:14.726Z,2.20
2023-04-19T19:17:41.441Z,2.13
2023-04-19T19:20:13.392Z,2.20
2023-04-19T19:22:40.362Z,2.30
2023-04-19T19:25:07.342Z,2.10
2023-04-19T19:27:35.324Z,2.05
2023-04-19T19:30:03.530Z,2.00
2023-04-19T19:32:32.485Z,2.38
2023-04-19T19:35:02.401Z,2.10
2023-04-19T19:37:30.528Z,2.50
2023-04-19T19:39:57.103Z,2.50
2023-04-19T19:42:26.594Z,2.42
2023-04-19T19:44:55.110Z,2.40
2023-04-19T19:47:24.040Z,2.50
2023-04-19T19:50:33.581Z,2.47
2023-04-19T19:52:37.575Z,2.22
2023-04-19T19:55:04.514Z,2.60
2023-04-19T20:00:17.936Z,2.53
2023-04-19T20:05:21.781Z,2.30
2023-04-19T20:10:19.778Z,2.47
2023-04-19T20:12:47.325Z,3.30
2023-04-19T20:15:14.106Z,2.80
2023-04-19T20:17:41.490Z,3.13
2023-04-19T20:20:09.110Z,3.10
2023-04-19T20:22:35.847Z,3.10
2023-04-19T20:25:03.735Z,2.95
2023-04-19T20:27:30.840Z,3.40
2023-04-19T20:29:57.552Z,2.83
2023-04-19T20:32:24.850Z,3.08
2023-04-19T20:34:52.169Z,2.58
2023-04-19T20:37:19.179Z,2.50
2023-04-19T20:39:47.959Z,2.65
2023-04-19T20:42:14.863Z,2.50
2023-04-19T20:44:44.574Z,2.55
2023-04-19T20:47:13.396Z,3.10
2023-04-19T20:49:40.310Z,3.00
2023-04-19T20:52:07.511Z,3.10
2023-04-19T20:54:36.647Z,3.30
2023-04-19T20:57:04.824Z,2.72
2023-04-19T20:59:31.659Z,3.13
2023-04-19T21:01:59.737Z,2.42
2023-04-19T21:04:31.726Z,2.85
2023-04-19T21:07:00.425Z,2.53
2023-04-19T21:09:30.359Z,3.25
2023-04-19T21:11:58.573Z,2.80
2023-04-19T21:14:25.393Z,2.60
2023-04-19T21:16:52.102Z,2.95
2023-04-19T21:19:19.039Z,2.80
2023-04-19T21:21:46.368Z,3.03
2023-04-19T21:24:13.452Z,3.00
2023-04-19T21:26:40.357Z,2.75
2023-04-19T21:29:07.255Z,2.78
2023-04-19T21:31:36.393Z,2.85
2023-04-19T21:34:06.241Z,2.40
2023-04-19T21:36:35.631Z,3.00
2023-04-19T21:39:02.723Z,2.70
2023-04-19T21:41:32.728Z,3.30
2023-04-19T21:43:59.903Z,2.30
2023-04-19T21:46:27.066Z,3.15
2023-04-19T21:48:56.302Z,2.80
2023-04-19T21:51:23.239Z,2.53
2023-04-19T21:53:50.977Z,2.47
2023-04-19T21:56:18.756Z,2.85
2023-04-19T21:58:45.627Z,2.88
2023-04-19T22:01:12.704Z,2.30
2023-04-19T22:03:39.883Z,2.22
2023-04-19T22:06:14.069Z,2.50
2023-04-19T22:08:41.907Z,2.28
2023-04-19T22:11:12.090Z,2.58
2023-04-19T22:13:38.983Z,1.95
2023-04-19T22:16:08.690Z,2.17
2023-04-19T22:18:41.484Z,2.30
2023-04-19T22:21:11.179Z,3.25
2023-04-19T22:23:38.248Z,2.20
2023-04-19T22:26:07.385Z,2.45
2023-04-19T22:28:36.055Z,1.90
2023-04-19T22:31:07.672Z,2.13
2023-04-19T22:33:40.295Z,2.40
2023-04-19T22:36:10.260Z,2.30
2023-04-19T22:38:41.999Z,2.65
2023-04-19T22:41:09.160Z,2.38
2023-04-19T22:43:36.044Z,2.38
2023-04-19T22:46:02.788Z,2.00
2023-04-19T22:48:30.265Z,2.25
2023-04-19T22:50:57.033Z,2.08
2023-04-19T22:53:24.034Z,2.58
2023-04-19T22:55:53.349Z,2.20
2023-04-19T22:58:20.191Z,2.47
2023-04-19T23:00:47.380Z,2.67
2023-04-19T23:03:16.813Z,2.60
2023-04-19T23:05:44.481Z,2.17
2023-04-19T23:08:12.958Z,2.20
2023-04-19T23:10:42.412Z,2.55
2023-04-19T23:13:10.618Z,2.00
2023-04-19T23:15:39.394Z,2.33
2023-04-19T23:18:08.539Z,1.83
2023-04-19T23:20:35.907Z,2.58
2023-04-19T23:23:05.389Z,2.13
2023-04-19T23:25:32.253Z,2.00
2023-04-19T23:27:58.927Z,2.40
2023-04-19T23:30:29.599Z,2.20
2023-04-19T23:32:56.510Z,2.30
2023-04-19T23:35:23.498Z,2.35
2023-04-19T23:37:50.669Z,2.22
2023-04-19T23:40:20.710Z,2.13
2023-04-19T23:42:47.572Z,2.38
2023-04-19T23:45:14.357Z,2.95
2023-04-19T23:47:41.389Z,2.28
2023-04-19T23:50:11.136Z,2.03
2023-04-19T23:52:40.137Z,2.47
2023-04-19T23:55:07.226Z,2.53
2023-04-19T23:57:35.973Z,2.20
